createdAt,value
2019-06-15T00:01:03.722Z,38.60
2019-06-15T00:03:32.062Z,38.60
2019-06-15T00:06:00.327Z,37.80
2019-06-15T00:08:28.682Z,36.50
2019-06-15T00:10:56.984Z,38.40
2019-06-15T00:13:25.232Z,38.60
2019-06-15T00:15:53.456Z,38.70
2019-06-15T00:18:21.746Z,38.50
2019-06-15T00:20:50.492Z,38.90
2019-06-15T00:23:18.928Z,38.00
2019-06-15T00:25:47.234Z,39.00
2019-06-15T00:28:15.538Z,38.80
2019-06-15T00:30:43.813Z,37.80
2019-06-15T00:33:12.369Z,38.00
2019-06-15T00:35:40.688Z,38.00
2019-06-15T00:38:08.963Z,37.30
2019-06-15T00:40:37.213Z,37.60
2019-06-15T00:43:05.544Z,38.20
2019-06-15T00:45:33.848Z,38.50
2019-06-15T00:48:02.121Z,37.70
2019-06-15T00:50:30.451Z,37.50
2019-06-15T00:52:58.697Z,37.80
2019-06-15T00:55:26.976Z,38.10
2019-06-15T00:57:55.270Z,37.80
2019-06-15T01:00:23.539Z,38.10
2019-06-15T01:02:51.844Z,37.80
2019-06-15T01:05:20.106Z,37.70
2019-06-15T01:07:48.392Z,38.40
2019-06-15T01:10:16.699Z,38.30
2019-06-15T01:12:44.928Z,38.20
2019-06-15T01:15:32.662Z,38.40
2019-06-15T01:18:00.958Z,37.50
2019-06-15T01:20:29.295Z,37.40
2019-06-15T01:22:57.543Z,37.90
2019-06-15T01:25:25.873Z,38.20
2019-06-15T01:27:54.148Z,37.80
2019-06-15T01:30:22.510Z,38.00
2019-06-15T01:32:50.797Z,38.10
2019-06-15T01:35:19.067Z,38.20
2019-06-15T01:37:47.453Z,37.90
2019-06-15T01:40:15.792Z,38.30
2019-06-15T01:42:44.051Z,38.40
2019-06-15T01:45:12.379Z,38.70
2019-06-15T01:47:40.654Z,38.10
2019-06-15T01:50:08.964Z,38.30
2019-06-15T01:52:37.221Z,38.10
2019-06-15T01:55:20.013Z,37.80
2019-06-15T01:57:37.254Z,38.70
2019-06-15T02:00:06.525Z,37.70
2019-06-15T02:02:34.827Z,38.70
2019-06-15T02:05:03.926Z,38.80
2019-06-15T02:07:32.227Z,38.40
2019-06-15T02:10:00.538Z,37.90
2019-06-15T02:12:28.804Z,38.40
2019-06-15T02:14:57.037Z,38.40
2019-06-15T02:17:25.308Z,38.20
2019-06-15T02:19:54.879Z,38.30
2019-06-15T02:22:23.218Z,38.20
2019-06-15T02:24:51.535Z,38.40
2019-06-15T02:27:19.891Z,38.50
2019-06-15T02:29:48.130Z,38.40
2019-06-15T02:32:16.419Z,38.60
2019-06-15T02:34:44.655Z,38.40
2019-06-15T02:37:13.019Z,39.60
2019-06-15T02:39:41.264Z,38.80
2019-06-15T02:42:09.527Z,38.30
2019-06-15T02:44:37.798Z,38.40
2019-06-15T02:47:06.129Z,39.00
2019-06-15T02:49:34.376Z,38.60
2019-06-15T02:52:02.632Z,39.50
2019-06-15T02:54:30.899Z,39.00
2019-06-15T02:56:59.157Z,39.00
2019-06-15T02:59:27.438Z,38.80
2019-06-15T03:01:55.668Z,38.80
2019-06-15T03:04:23.964Z,38.90
2019-06-15T03:06:52.502Z,39.10
2019-06-15T03:09:20.814Z,39.60
2019-06-15T03:11:49.086Z,38.50
2019-06-15T03:14:17.422Z,38.60
2019-06-15T03:16:45.709Z,38.80
2019-06-15T03:19:13.987Z,38.70
2019-06-15T03:21:42.274Z,39.10
2019-06-15T03:24:10.521Z,39.10
2019-06-15T03:26:38.866Z,39.00
2019-06-15T03:29:07.180Z,39.00
2019-06-15T03:31:35.469Z,38.80
2019-06-15T03:34:03.727Z,39.50
2019-06-15T03:36:32.059Z,38.80
2019-06-15T03:39:00.317Z,39.20
2019-06-15T03:41:28.610Z,38.90
2019-06-15T03:43:56.881Z,39.10
2019-06-15T03:46:25.235Z,39.10
2019-06-15T03:48:53.531Z,39.40
2019-06-15T03:51:21.835Z,39.00
2019-06-15T03:53:50.107Z,39.20
2019-06-15T03:56:21.993Z,39.50
2019-06-15T03:58:48.395Z,39.60
2019-06-15T04:01:22.819Z,39.40
2019-06-15T04:03:51.094Z,39.10
2019-06-15T04:06:19.383Z,39.80
2019-06-15T04:08:48.164Z,39.00
2019-06-15T04:11:16.380Z,39.50
2019-06-15T04:13:44.637Z,39.30
2019-06-15T04:16:12.903Z,40.00
2019-06-15T04:18:41.199Z,39.60
2019-06-15T04:21:09.534Z,39.30
2019-06-15T04:23:37.763Z,39.50
2019-06-15T04:26:06.070Z,39.30
2019-06-15T04:28:34.387Z,39.50
2019-06-15T04:31:02.680Z,39.20
2019-06-15T04:33:30.955Z,39.30
2019-06-15T04:35:59.209Z,40.00
2019-06-15T04:38:27.506Z,40.10
2019-06-15T04:40:55.751Z,39.80
2019-06-15T04:43:24.043Z,39.60
2019-06-15T04:45:52.346Z,40.10
2019-06-15T04:48:20.625Z,39.60
2019-06-15T04:50:48.894Z,39.80
2019-06-15T04:53:17.195Z,40.00
2019-06-15T04:55:45.434Z,39.70
2019-06-15T04:58:13.708Z,39.80
2019-06-15T05:00:41.986Z,39.70
2019-06-15T05:03:10.265Z,39.70
2019-06-15T05:05:38.508Z,39.70
2019-06-15T05:08:06.799Z,39.40
2019-06-15T05:10:35.070Z,39.60
2019-06-15T05:13:03.385Z,39.80
2019-06-15T05:15:31.660Z,40.10
2019-06-15T05:18:00.062Z,39.50
2019-06-15T05:20:28.331Z,40.10
2019-06-15T05:22:56.587Z,40.70
2019-06-15T05:25:24.894Z,40.80
2019-06-15T05:27:53.232Z,41.50
2019-06-15T05:30:21.506Z,41.20
2019-06-15T05:32:49.749Z,41.30
2019-06-15T05:35:18.182Z,41.40
2019-06-15T05:37:46.648Z,40.70
2019-06-15T05:40:15.476Z,40.70
2019-06-15T05:42:43.739Z,41.10
2019-06-15T05:45:12.100Z,41.60
2019-06-15T05:47:40.353Z,41.80
2019-06-15T05:50:08.629Z,42.40
2019-06-15T05:52:36.998Z,42.40
2019-06-15T05:55:06.558Z,42.30
2019-06-15T05:57:55.987Z,42.40
2019-06-15T06:00:24.239Z,42.30
2019-06-15T06:02:52.492Z,42.30
2019-06-15T06:05:20.761Z,41.20
2019-06-15T06:07:49.035Z,39.30
2019-06-15T06:10:17.325Z,39.80
2019-06-15T06:12:45.623Z,38.40
2019-06-15T06:15:13.888Z,39.60
2019-06-15T06:17:42.477Z,38.90
2019-06-15T06:20:12.358Z,39.20
2019-06-15T06:22:40.654Z,38.40
2019-06-15T06:25:08.993Z,36.90
2019-06-15T06:27:37.470Z,36.80
2019-06-15T06:30:07.595Z,37.40
2019-06-15T06:32:35.874Z,36.80
2019-06-15T06:35:04.908Z,36.80
2019-06-15T06:37:33.205Z,36.90
2019-06-15T06:40:01.650Z,36.00
2019-06-15T06:42:30.194Z,36.20
2019-06-15T06:44:58.429Z,36.00
2019-06-15T06:47:26.693Z,36.50
2019-06-15T06:49:54.969Z,35.40
2019-06-15T06:52:23.353Z,35.50
2019-06-15T06:54:51.646Z,35.60
2019-06-15T06:57:20.001Z,36.40
2019-06-15T06:59:48.305Z,36.80
2019-06-15T07:02:16.540Z,36.80
2019-06-15T07:04:44.818Z,36.80
2019-06-15T07:07:13.109Z,36.20
2019-06-15T07:09:41.388Z,35.40
2019-06-15T07:12:09.661Z,35.50
2019-06-15T07:14:37.933Z,36.20
2019-06-15T07:17:06.231Z,36.60
2019-06-15T07:19:34.549Z,36.50
2019-06-15T07:22:02.850Z,36.60
2019-06-15T07:24:31.124Z,36.60
2019-06-15T07:26:59.411Z,36.50
2019-06-15T07:29:27.711Z,36.50
2019-06-15T07:31:55.992Z,36.40
2019-06-15T07:34:24.396Z,36.50
2019-06-15T07:36:52.762Z,36.40
2019-06-15T07:39:21.123Z,36.40
2019-06-15T07:41:49.398Z,36.70
2019-06-15T07:44:17.761Z,36.40
2019-06-15T07:46:46.047Z,36.40
2019-06-15T07:49:14.323Z,36.30
2019-06-15T07:51:42.612Z,36.40
2019-06-15T07:54:10.861Z,36.30
2019-06-15T07:56:39.148Z,36.20
2019-06-15T07:59:07.457Z,36.40
2019-06-15T08:01:35.796Z,36.40
2019-06-15T08:04:04.034Z,36.40
2019-06-15T08:06:32.319Z,36.30
2019-06-15T08:09:00.568Z,36.40
2019-06-15T08:11:28.861Z,36.10
2019-06-15T08:13:57.269Z,35.30
2019-06-15T08:16:25.538Z,35.30
2019-06-15T08:18:53.805Z,35.10
2019-06-15T08:21:22.063Z,34.70
2019-06-15T08:23:50.353Z,35.20
2019-06-15T08:26:18.602Z,35.50
2019-06-15T08:28:46.882Z,35.40
2019-06-15T08:31:15.126Z,36.20
2019-06-15T08:33:43.400Z,35.20
2019-06-15T08:36:11.703Z,34.60
2019-06-15T08:38:40.050Z,35.10
2019-06-15T08:41:08.281Z,36.20
2019-06-15T08:43:36.572Z,36.40
2019-06-15T08:46:04.958Z,36.40
2019-06-15T08:48:33.255Z,35.30
2019-06-15T08:51:01.608Z,34.80
2019-06-15T08:53:29.844Z,34.70
2019-06-15T08:55:58.128Z,34.80
2019-06-15T08:58:26.406Z,35.00
2019-06-15T09:00:54.646Z,35.50
2019-06-15T09:03:22.945Z,34.70
2019-06-15T09:05:51.183Z,35.00
2019-06-15T09:08:19.459Z,34.70
2019-06-15T09:10:47.756Z,34.90
2019-06-15T09:13:16.022Z,34.80
2019-06-15T09:15:54.010Z,35.10
2019-06-15T09:18:22.515Z,35.00
2019-06-15T09:20:51.348Z,35.20
2019-06-15T09:23:19.800Z,36.70
2019-06-15T09:25:48.058Z,36.60
2019-06-15T09:28:16.346Z,34.20
2019-06-15T09:30:44.598Z,33.00
2019-06-15T09:33:12.862Z,33.70
2019-06-15T09:35:41.312Z,33.70
2019-06-15T09:38:09.622Z,33.70
2019-06-15T09:40:37.936Z,33.60
2019-06-15T09:43:06.196Z,33.30
2019-06-15T09:45:34.484Z,33.50
2019-06-15T09:48:02.769Z,33.10
2019-06-15T09:50:31.095Z,34.80
2019-06-15T09:52:59.420Z,35.10
2019-06-15T09:55:27.655Z,33.50
2019-06-15T09:57:58.565Z,33.90
2019-06-15T10:00:26.863Z,35.20
2019-06-15T10:02:55.095Z,34.60
2019-06-15T10:05:23.376Z,34.20
2019-06-15T10:07:51.673Z,34.90
2019-06-15T10:10:19.933Z,34.30
2019-06-15T10:12:48.210Z,34.40
2019-06-15T10:15:16.620Z,34.00
2019-06-15T10:17:44.884Z,33.90
2019-06-15T10:20:13.395Z,34.70
2019-06-15T10:22:41.789Z,35.10
2019-06-15T10:25:10.075Z,34.20
2019-06-15T10:27:38.417Z,32.80
2019-06-15T10:30:07.736Z,31.80
2019-06-15T10:32:35.997Z,31.40
2019-06-15T10:35:05.228Z,32.50
2019-06-15T10:37:33.514Z,31.80
2019-06-15T10:40:01.901Z,32.10
2019-06-15T10:42:30.259Z,32.30
2019-06-15T10:44:58.539Z,32.20
2019-06-15T10:47:26.929Z,32.70
2019-06-15T10:49:55.235Z,33.60
2019-06-15T10:52:23.582Z,33.30
2019-06-15T10:54:51.891Z,33.20
2019-06-15T10:57:20.191Z,33.70
2019-06-15T10:59:56.920Z,33.20
2019-06-15T11:02:18.443Z,32.60
2019-06-15T11:04:46.869Z,32.40
2019-06-15T11:07:15.265Z,33.10
2019-06-15T11:09:43.559Z,33.00
2019-06-15T11:12:11.867Z,32.40
2019-06-15T11:14:40.113Z,32.90
2019-06-15T11:17:08.374Z,33.20
2019-06-15T11:19:36.623Z,33.20
2019-06-15T11:22:04.889Z,32.90
2019-06-15T11:24:33.167Z,32.90
2019-06-15T11:27:01.449Z,32.90
2019-06-15T11:29:29.698Z,32.90
2019-06-15T11:31:58.000Z,33.40
2019-06-15T11:34:26.407Z,33.20
2019-06-15T11:36:54.697Z,32.50
2019-06-15T11:39:22.995Z,33.00
2019-06-15T11:41:51.305Z,33.30
2019-06-15T11:44:19.599Z,33.20
2019-06-15T11:46:47.848Z,33.40
2019-06-15T11:49:16.145Z,33.60
2019-06-15T11:51:44.451Z,32.90
2019-06-15T11:54:12.699Z,32.50
2019-06-15T11:56:40.996Z,31.00
2019-06-15T11:59:11.460Z,31.00
2019-06-15T12:01:39.744Z,31.00
2019-06-15T12:04:07.986Z,31.00
2019-06-15T12:06:36.243Z,32.20
2019-06-15T12:09:06.612Z,33.00
2019-06-15T12:11:35.022Z,32.90
2019-06-15T12:14:03.287Z,32.80
2019-06-15T12:16:31.617Z,32.20
2019-06-15T12:18:59.937Z,32.70
2019-06-15T12:21:28.211Z,33.10
2019-06-15T12:23:56.522Z,31.90
2019-06-15T12:26:44.206Z,30.90
2019-06-15T12:29:12.472Z,31.60
2019-06-15T12:31:40.738Z,30.90
2019-06-15T12:34:09.014Z,30.90
2019-06-15T12:36:37.338Z,30.90
2019-06-15T12:39:06.344Z,30.80
2019-06-15T12:41:34.626Z,30.90
2019-06-15T12:44:02.880Z,31.20
2019-06-15T12:46:31.219Z,30.90
2019-06-15T12:48:59.514Z,31.50
2019-06-15T12:51:27.779Z,32.10
2019-06-15T12:53:56.055Z,32.10
2019-06-15T12:56:24.312Z,31.80
2019-06-15T12:58:52.616Z,32.50
2019-06-15T13:01:20.962Z,30.90
2019-06-15T13:03:49.303Z,30.90
2019-06-15T13:06:17.580Z,31.00
2019-06-15T13:08:45.881Z,31.00
2019-06-15T13:11:14.133Z,30.90
2019-06-15T13:13:42.382Z,30.90
2019-06-15T13:16:10.677Z,31.00
2019-06-15T13:18:38.994Z,31.00
2019-06-15T13:21:07.268Z,31.00
2019-06-15T13:23:35.525Z,30.90
2019-06-15T13:26:03.802Z,31.00
2019-06-15T13:28:32.065Z,31.00
2019-06-15T13:31:00.327Z,31.00
2019-06-15T13:33:28.639Z,31.00
2019-06-15T13:35:56.978Z,31.10
2019-06-15T13:38:25.242Z,31.10
2019-06-15T13:40:53.521Z,31.00
2019-06-15T13:43:21.738Z,31.10
2019-06-15T13:45:50.552Z,31.10
2019-06-15T13:48:38.845Z,31.00
2019-06-15T13:51:07.299Z,31.00
2019-06-15T13:53:36.601Z,31.00
2019-06-15T13:56:05.095Z,31.10
2019-06-15T13:58:33.501Z,31.00
2019-06-15T14:01:03.662Z,31.00
2019-06-15T14:03:31.947Z,31.00
2019-06-15T14:06:02.865Z,31.10
2019-06-15T14:08:31.386Z,31.00
2019-06-15T14:10:59.668Z,31.10
2019-06-15T14:13:29.819Z,30.20
2019-06-15T14:15:58.218Z,31.10
2019-06-15T14:18:26.470Z,30.50
2019-06-15T14:20:54.769Z,30.50
2019-06-15T14:23:23.067Z,30.00
2019-06-15T14:25:51.301Z,30.10
2019-06-15T14:28:19.666Z,30.10
2019-06-15T14:30:48.028Z,29.80
2019-06-15T14:33:16.363Z,30.50
2019-06-15T14:35:44.655Z,31.10
2019-06-15T14:38:12.897Z,30.60
2019-06-15T14:40:41.174Z,31.10
2019-06-15T14:43:09.430Z,31.10
2019-06-15T14:45:37.716Z,29.70
2019-06-15T14:48:05.990Z,29.30
2019-06-15T14:50:34.330Z,28.50
2019-06-15T14:53:02.694Z,28.80
2019-06-15T14:55:30.910Z,29.00
2019-06-15T14:57:59.214Z,29.30
2019-06-15T15:00:27.470Z,29.50
2019-06-15T15:02:56.055Z,29.80
2019-06-15T15:05:27.066Z,29.50
2019-06-15T15:07:56.253Z,29.70
2019-06-15T15:10:26.721Z,29.60
2019-06-15T15:12:56.656Z,31.30
2019-06-15T15:15:24.678Z,29.80
2019-06-15T15:17:53.354Z,31.40
2019-06-15T15:20:21.594Z,29.30
2019-06-15T15:22:49.921Z,31.30
2019-06-15T15:25:18.162Z,30.20
2019-06-15T15:27:46.973Z,31.30
2019-06-15T15:30:18.654Z,30.80
2019-06-15T15:32:46.920Z,29.90
2019-06-15T15:35:16.051Z,29.60
2019-06-15T15:37:46.341Z,29.50
2019-06-15T15:40:16.646Z,29.60
2019-06-15T15:42:44.415Z,31.30
2019-06-15T15:45:12.805Z,30.00
2019-06-15T15:47:41.030Z,29.70
2019-06-15T15:50:09.322Z,29.40
2019-06-15T15:52:37.807Z,29.30
2019-06-15T15:55:10.514Z,28.90
2019-06-15T15:57:38.786Z,28.50
2019-06-15T16:00:08.162Z,28.70
2019-06-15T16:02:47.699Z,29.00
2019-06-15T16:05:06.898Z,29.00
2019-06-15T16:07:36.433Z,29.50
2019-06-15T16:10:06.527Z,30.50
2019-06-15T16:12:36.208Z,32.10
2019-06-15T16:15:07.278Z,30.60
2019-06-15T16:17:37.237Z,30.20
2019-06-15T16:20:09.122Z,31.00
2019-06-15T16:22:37.364Z,29.90
2019-06-15T16:25:06.839Z,29.90
2019-06-15T16:27:37.057Z,29.70
2019-06-15T16:30:08.292Z,30.10
2019-06-15T16:32:37.179Z,30.00
2019-06-15T16:35:06.167Z,29.00
2019-06-15T16:37:34.601Z,29.90
2019-06-15T16:40:04.432Z,29.80
2019-06-15T16:42:32.709Z,29.90
2019-06-15T16:45:00.986Z,29.70
2019-06-15T16:47:29.233Z,29.70
2019-06-15T16:49:57.467Z,29.90
2019-06-15T16:52:26.905Z,29.60
2019-06-15T16:54:55.391Z,29.60
2019-06-15T16:57:23.678Z,29.80
2019-06-15T16:59:51.981Z,29.70
2019-06-15T17:02:20.221Z,29.80
2019-06-15T17:04:48.509Z,29.70
2019-06-15T17:07:17.403Z,29.60
2019-06-15T17:09:46.548Z,29.60
2019-06-15T17:12:16.839Z,29.80
2019-06-15T17:14:44.951Z,30.20
2019-06-15T17:17:13.204Z,29.60
2019-06-15T17:19:41.477Z,30.20
2019-06-15T17:22:20.390Z,30.00
2019-06-15T17:24:39.745Z,31.30
2019-06-15T17:27:08.053Z,30.60
2019-06-15T17:29:36.487Z,32.00
2019-06-15T17:32:06.362Z,31.30
2019-06-15T17:34:36.378Z,31.30
2019-06-15T17:37:06.825Z,31.30
2019-06-15T17:39:37.044Z,31.20
2019-06-15T17:42:06.908Z,31.20
2019-06-15T17:44:36.871Z,31.10
2019-06-15T17:47:07.088Z,31.10
2019-06-15T17:49:37.158Z,31.70
2019-06-15T17:52:06.544Z,31.20
2019-06-15T17:54:37.209Z,31.10
2019-06-15T17:57:04.989Z,31.50
2019-06-15T17:59:33.304Z,31.20
2019-06-15T18:02:01.594Z,31.30
2019-06-15T18:04:29.839Z,31.10
2019-06-15T18:06:58.205Z,31.10
2019-06-15T18:09:26.454Z,31.20
2019-06-15T18:11:56.980Z,31.10
2019-06-15T18:14:26.366Z,31.10
2019-06-15T18:16:54.800Z,31.10
2019-06-15T18:19:23.056Z,31.10
2019-06-15T18:21:51.331Z,31.10
2019-06-15T18:24:19.596Z,31.10
2019-06-15T18:26:47.898Z,31.40
2019-06-15T18:29:16.819Z,31.00
2019-06-15T18:31:45.331Z,31.20
2019-06-15T18:34:16.719Z,31.60
2019-06-15T18:36:43.600Z,31.10
2019-06-15T18:39:11.869Z,31.80
2019-06-15T18:41:40.128Z,32.10
2019-06-15T18:44:08.501Z,33.20
2019-06-15T18:46:36.895Z,33.10
2019-06-15T18:49:06.771Z,32.40
2019-06-15T18:51:35.264Z,32.80
2019-06-15T18:54:03.556Z,32.90
2019-06-15T18:56:31.812Z,32.90
2019-06-15T18:59:00.094Z,33.00
2019-06-15T19:01:28.337Z,32.70
2019-06-15T19:03:56.605Z,32.80
2019-06-15T19:06:26.453Z,32.70
2019-06-15T19:08:57.303Z,32.90
2019-06-15T19:11:27.166Z,32.90
2019-06-15T19:13:56.340Z,32.50
2019-06-15T19:16:24.825Z,33.20
2019-06-15T19:18:53.179Z,32.90
2019-06-15T19:21:21.441Z,33.10
2019-06-15T19:23:49.791Z,32.40
2019-06-15T19:26:18.067Z,32.30
2019-06-15T19:28:46.411Z,32.10
2019-06-15T19:31:14.847Z,32.40
2019-06-15T19:33:46.909Z,32.10
2019-06-15T19:36:15.374Z,32.40
2019-06-15T19:38:43.654Z,32.40
2019-06-15T19:41:11.908Z,32.90
2019-06-15T19:43:40.219Z,33.00
2019-06-15T19:46:08.451Z,33.20
2019-06-15T19:48:37.092Z,33.60
2019-06-15T19:51:05.469Z,34.20
2019-06-15T19:53:36.157Z,33.00
2019-06-15T19:56:03.824Z,34.20
2019-06-15T19:58:32.215Z,34.30
2019-06-15T20:01:00.528Z,33.80
2019-06-15T20:03:29.043Z,33.90
2019-06-15T20:05:57.436Z,32.90
2019-06-15T20:08:26.475Z,32.80
2019-06-15T20:10:56.324Z,31.40
2019-06-15T20:13:24.992Z,31.40
2019-06-15T20:15:53.256Z,31.80
2019-06-15T20:18:21.538Z,35.70
2019-06-15T20:20:49.797Z,31.90
2019-06-15T20:23:18.077Z,32.00
2019-06-15T20:25:47.018Z,31.90
2019-06-15T20:28:16.364Z,31.00
2019-06-15T20:30:46.171Z,31.20
2019-06-15T20:33:16.708Z,30.90
2019-06-15T20:35:47.193Z,31.10
2019-06-15T20:38:16.079Z,30.80
2019-06-15T20:40:47.362Z,31.00
2019-06-15T20:43:17.082Z,30.90
2019-06-15T20:45:47.082Z,31.90
2019-06-15T20:48:15.398Z,32.00
2019-06-15T20:50:43.681Z,32.00
2019-06-15T20:53:11.951Z,32.00
2019-06-15T20:55:40.224Z,32.00
2019-06-15T20:58:08.508Z,32.00
2019-06-15T21:00:36.967Z,32.00
2019-06-15T21:03:06.802Z,31.80
2019-06-15T21:05:41.097Z,31.80
2019-06-15T21:08:06.873Z,31.60
2019-06-15T21:10:37.287Z,31.60
2019-06-15T21:13:05.411Z,31.90
2019-06-15T21:15:37.816Z,33.00
2019-06-15T21:18:06.725Z,33.30
2019-06-15T21:20:36.316Z,33.20
2019-06-15T21:23:06.576Z,34.10
2019-06-15T21:25:34.785Z,33.50
2019-06-15T21:28:03.071Z,33.60
2019-06-15T21:30:31.392Z,34.20
2019-06-15T21:32:59.670Z,34.40
2019-06-15T21:35:27.948Z,34.80
2019-06-15T21:37:57.129Z,35.70
2019-06-15T21:40:27.260Z,34.40
2019-06-15T21:42:56.294Z,34.80
2019-06-15T21:45:24.863Z,35.50
2019-06-15T21:47:53.119Z,34.60
2019-06-15T21:50:21.368Z,35.20
2019-06-15T21:52:49.748Z,35.70
2019-06-15T21:55:18.069Z,35.90
2019-06-15T21:57:46.315Z,38.50
2019-06-15T22:00:17.922Z,37.00
2019-06-15T22:02:47.138Z,37.00
2019-06-15T22:05:16.613Z,36.00
2019-06-15T22:07:47.456Z,37.50
2019-06-15T22:10:16.011Z,36.00
2019-06-15T22:12:44.534Z,35.20
2019-06-15T22:15:12.928Z,36.10
2019-06-15T22:17:41.310Z,35.50
2019-06-15T22:20:09.617Z,35.60
2019-06-15T22:22:38.058Z,35.50
2019-06-15T22:25:07.022Z,35.70
2019-06-15T22:27:36.205Z,35.40
2019-06-15T22:30:07.810Z,35.80
2019-06-15T22:32:36.159Z,36.60
2019-06-15T22:35:08.736Z,36.60
2019-06-15T22:37:36.974Z,36.50
2019-06-15T22:40:07.716Z,37.50
2019-06-15T22:42:36.370Z,37.50
2019-06-15T22:45:06.804Z,37.70
2019-06-15T22:47:36.112Z,38.50
2019-06-15T22:50:07.056Z,38.20
2019-06-15T22:52:36.469Z,38.50
2019-06-15T22:55:06.896Z,39.20
2019-06-15T22:57:37.088Z,40.10
2019-06-15T23:00:07.735Z,38.70
2019-06-15T23:02:36.323Z,38.50
2019-06-15T23:05:06.536Z,38.50
2019-06-15T23:07:36.419Z,38.80
2019-06-15T23:10:07.938Z,39.00
2019-06-15T23:12:37.188Z,38.50
2019-06-15T23:15:07.440Z,39.10
2019-06-15T23:17:37.242Z,40.60
2019-06-15T23:20:08.798Z,41.80
2019-06-15T23:22:37.157Z,41.80
2019-06-15T23:25:06.103Z,41.80
2019-06-15T23:27:34.657Z,41.70
2019-06-15T23:30:06.782Z,41.80
2019-06-15T23:32:34.773Z,41.80
2019-06-15T23:35:06.518Z,41.90
2019-06-15T23:37:34.410Z,42.10
2019-06-15T23:40:20.871Z,42.10
2019-06-15T23:42:49.857Z,42.00
2019-06-15T23:45:19.199Z,43.50
2019-06-15T23:47:47.439Z,42.10
2019-06-15T23:50:16.974Z,43.80
2019-06-15T23:52:46.964Z,42.20
2019-06-15T23:55:16.474Z,42.20
2019-06-15T23:57:46.457Z,43.00
